Time;durP1;ratioP1;P1;durP2;ratioP2;P2;SDS_P1;SDS_P2;PMS_P1;PMS_P2;Temp;Humidity;BMP_temperature;BMP_pressure;BME280_temperature;BME280_humidity;BME280_pressure;Samples;Min_cycle;Max_cycle;Signal;HPM_P1;HPM_P2
2021/09/28 06:00:10;;;;;;;13.35;2.30;;;13.40;99.90;;;;;;5973207;23;21519;31
2021/09/28 06:02:37;;;;;;;13.00;1.98;;;13.40;99.90;;;;;;4890450;29;20091;-85
2021/09/28 06:05:05;;;;;;;11.77;1.90;;;13.40;99.90;;;;;;4895239;29;20045;-87
2021/09/28 06:07:32;;;;;;;9.57;1.85;;;13.40;99.90;;;;;;4881307;29;20509;-86
2021/09/28 06:09:59;;;;;;;12.30;1.70;;;13.40;99.90;;;;;;4880650;29;20293;-85
2021/09/28 06:12:26;;;;;;;12.35;2.30;;;13.40;99.90;;;;;;4883828;29;20104;-85
2021/09/28 06:14:53;;;;;;;9.68;1.30;;;13.40;99.90;;;;;;4893520;29;20048;-84
2021/09/28 06:17:20;;;;;;;8.25;1.38;;;13.40;99.90;;;;;;4896073;29;20056;-86
2021/09/28 06:19:47;;;;;;;7.35;1.38;;;13.40;99.90;;;;;;4897033;29;20505;-87
2021/09/28 06:22:14;;;;;;;12.30;1.83;;;13.40;99.90;;;;;;4895788;29;20048;-86
2021/09/28 06:24:41;;;;;;;9.85;1.50;;;13.40;99.90;;;;;;4896924;29;20052;-86
2021/09/28 06:27:08;;;;;;;11.93;1.60;;;13.40;99.90;;;;;;4878732;29;20052;-85
2021/09/28 06:29:35;;;;;;;8.50;1.85;;;13.40;99.90;;;;;;4879227;29;20089;-87
2021/09/28 06:32:02;;;;;;;8.43;1.30;;;13.40;99.90;;;;;;4895686;29;20140;-86
2021/09/28 06:34:29;;;;;;;9.98;1.60;;;13.40;99.90;;;;;;4878298;29;20489;-86
2021/09/28 06:36:56;;;;;;;7.38;1.30;;;13.40;99.90;;;;;;4879517;29;20045;-85
2021/09/28 06:39:23;;;;;;;7.07;1.35;;;13.40;99.90;;;;;;4895708;29;20581;-85
2021/09/28 06:41:50;;;;;;;10.77;1.80;;;13.40;99.90;;;;;;4895960;29;20102;-85
2021/09/28 06:44:17;;;;;;;8.13;1.50;;;13.40;99.90;;;;;;4894255;29;20049;-85
2021/09/28 06:46:44;;;;;;;7.35;1.20;;;13.40;99.90;;;;;;4878495;29;20044;-85
2021/09/28 06:49:11;;;;;;;9.68;1.33;;;13.40;99.90;;;;;;4894901;29;20060;-84
2021/09/28 06:51:38;;;;;;;9.30;1.55;;;13.40;99.90;;;;;;4895673;29;20044;-84
2021/09/28 06:54:06;;;;;;;8.85;1.23;;;13.40;99.90;;;;;;4894674;29;20108;-84
2021/09/28 06:56:33;;;;;;;5.28;1.23;;;13.50;99.90;;;;;;4894987;29;20056;-85
2021/09/28 06:59:00;;;;;;;7.43;1.45;;;13.50;99.90;;;;;;4894613;29;20136;-85
2021/09/28 07:01:27;;;;;;;10.20;1.85;;;13.50;99.90;;;;;;4894913;29;20127;-84
2021/09/28 07:03:55;;;;;;;10.23;1.25;;;13.50;99.90;;;;;;4878874;29;20407;-84
2021/09/28 07:06:22;;;;;;;6.40;1.27;;;13.50;99.90;;;;;;4894639;29;20072;-85
2021/09/28 07:08:50;;;;;;;5.93;1.08;;;13.50;99.90;;;;;;4894880;29;20108;-85
2021/09/28 07:11:19;;;;;;;9.82;1.50;;;13.60;99.90;;;;;;4894552;29;20108;-84
2021/09/28 07:13:49;;;;;;;8.15;1.33;;;13.60;99.90;;;;;;4894721;29;20044;-85
2021/09/28 07:16:17;;;;;;;11.20;1.40;;;13.60;99.90;;;;;;4894609;29;20049;-85
2021/09/28 07:18:44;;;;;;;6.70;1.33;;;13.70;99.90;;;;;;4878819;29;20536;-85
2021/09/28 07:21:12;;;;;;;8.90;1.35;;;13.70;99.90;;;;;;4894648;29;20108;-84
2021/09/28 07:23:39;;;;;;;9.85;1.50;;;13.70;99.90;;;;;;4878255;29;20104;-85
2021/09/28 07:26:07;;;;;;;8.07;1.58;;;13.80;99.90;;;;;;4894423;29;20414;-83
2021/09/28 07:28:36;;;;;;;7.43;1.40;;;13.80;99.90;;;;;;4895454;29;20053;-84
2021/09/28 07:31:05;;;;;;;11.05;1.52;;;13.80;99.90;;;;;;4894203;29;20509;-84
2021/09/28 07:33:32;;;;;;;7.15;1.13;;;13.80;99.90;;;;;;4876352;29;20052;-85
2021/09/28 07:36:02;;;;;;;6.47;1.45;;;13.90;99.90;;;;;;4875580;29;20087;-83
2021/09/28 07:38:28;;;;;;;6.50;1.10;;;14.00;99.90;;;;;;4877784;29;20120;-85
2021/09/28 07:40:55;;;;;;;11.55;1.40;;;14.00;99.90;;;;;;4894611;29;20044;-84
2021/09/28 07:43:22;;;;;;;8.52;1.63;;;14.10;99.90;;;;;;4894823;29;20501;-84
2021/09/28 07:45:49;;;;;;;9.73;1.60;;;14.10;99.90;;;;;;4894491;29;20109;-84
2021/09/28 07:48:16;;;;;;;11.35;1.80;;;14.20;99.90;;;;;;4897657;29;20104;-84
2021/09/28 07:50:44;;;;;;;11.35;1.67;;;14.20;99.90;;;;;;4898319;29;20104;-84
2021/09/28 07:53:10;;;;;;;7.80;1.77;;;14.30;99.90;;;;;;4898164;29;20490;-83
2021/09/28 07:55:38;;;;;;;9.45;1.58;;;14.30;99.90;;;;;;4898201;29;20108;-84
2021/09/28 07:58:05;;;;;;;9.70;1.45;;;14.40;99.90;;;;;;4898110;29;20112;-84
2021/09/28 08:00:31;;;;;;;8.77;1.48;;;14.40;99.90;;;;;;4897701;29;20053;-85
2021/09/28 08:02:58;;;;;;;9.23;1.90;;;14.50;99.90;;;;;;4881639;29;20127;-84
2021/09/28 08:05:26;;;;;;;10.10;1.50;;;14.60;99.90;;;;;;4897070;29;20067;-84
2021/09/28 08:07:52;;;;;;;12.20;1.70;;;14.60;99.90;;;;;;4897438;29;20124;-84
2021/09/28 08:10:19;;;;;;;15.60;2.40;;;14.70;99.90;;;;;;4881923;29;20053;-83
2021/09/28 08:12:46;;;;;;;8.65;1.73;;;14.80;99.90;;;;;;4898198;29;20052;-83
2021/09/28 08:15:14;;;;;;;12.77;2.08;;;14.90;99.90;;;;;;4896880;29;20059;-84
2021/09/28 08:17:41;;;;;;;11.60;2.17;;;15.00;99.90;;;;;;4897325;29;20517;-84
2021/09/28 08:20:10;;;;;;;14.90;2.83;;;15.00;99.90;;;;;;4897040;29;20057;-84
2021/09/28 08:22:39;;;;;;;12.40;2.75;;;15.10;99.90;;;;;;4897986;29;20044;-83
2021/09/28 08:25:12;;;;;;;13.32;2.40;;;15.20;99.90;;;;;;4896694;29;20084;-82
2021/09/28 08:30:25;;;;;;;11.52;1.98;;;15.30;99.90;;;;;;4895935;29;20144;-83
2021/09/28 08:32:53;;;;;;;15.40;2.03;;;15.40;99.90;;;;;;4880422;29;20045;-84
2021/09/28 08:35:20;;;;;;;9.40;2.08;;;15.40;99.90;;;;;;4896531;29;20056;-84
2021/09/28 08:37:47;;;;;;;10.02;2.22;;;15.40;99.90;;;;;;4880513;29;20113;-84
2021/09/28 08:40:15;;;;;;;10.82;1.77;;;15.50;99.90;;;;;;4896066;29;20108;-83
2021/09/28 08:42:42;;;;;;;20.90;2.20;;;15.50;99.90;;;;;;4880764;29;20176;-83
2021/09/28 08:45:10;;;;;;;18.58;2.70;;;15.60;99.90;;;;;;4896712;29;20132;-83
2021/09/28 08:47:42;;;;;;;11.63;1.90;;;15.70;99.90;;;;;;4896933;29;20468;-84
2021/09/28 08:50:16;;;;;;;13.60;2.53;;;15.70;99.90;;;;;;4895929;29;20475;-82
2021/09/28 08:52:45;;;;;;;14.02;2.67;;;15.80;99.90;;;;;;4896284;29;20100;-83
2021/09/28 08:55:22;;;;;;;23.02;3.17;;;15.90;99.90;;;;;;4865145;29;20458;-83
2021/09/28 08:57:50;;;;;;;18.67;2.50;;;16.00;99.90;;;;;;4896730;29;20048;-82
2021/09/28 09:00:17;;;;;;;16.00;3.00;;;16.10;99.90;;;;;;4895533;29;20525;-83
2021/09/28 09:02:46;;;;;;;17.08;2.78;;;16.20;99.90;;;;;;4896534;29;20048;-83
2021/09/28 09:05:16;;;;;;;16.35;2.30;;;16.30;99.90;;;;;;4895455;29;20056;-83
2021/09/28 09:07:55;;;;;;;10.15;2.05;;;16.40;99.90;;;;;;4884269;29;20060;-83
2021/09/28 09:10:27;;;;;;;14.15;2.80;;;16.40;99.90;;;;;;4864362;29;20059;-84
2021/09/28 09:12:54;;;;;;;10.93;2.47;;;16.50;99.90;;;;;;4895931;29;20053;-83
2021/09/28 09:15:27;;;;;;;12.20;2.30;;;16.60;99.90;;;;;;4895110;29;20068;-83
2021/09/28 09:17:57;;;;;;;10.50;2.45;;;16.70;99.90;;;;;;4895738;29;20073;-84
2021/09/28 09:20:25;;;;;;;10.85;2.20;;;16.80;99.90;;;;;;4895292;29;20053;-83
2021/09/28 09:22:53;;;;;;;12.27;1.63;;;16.90;99.90;;;;;;4895099;29;20112;-83
2021/09/28 09:25:23;;;;;;;11.48;2.10;;;17.00;99.90;;;;;;4880330;29;20045;-83
2021/09/28 09:27:52;;;;;;;9.02;1.70;;;17.10;99.90;;;;;;4892386;29;20074;-83
2021/09/28 09:30:21;;;;;;;9.88;1.92;;;17.20;99.90;;;;;;4894702;29;20049;-84
2021/09/28 09:32:50;;;;;;;9.18;1.90;;;17.20;99.90;;;;;;4895576;29;20056;-83
2021/09/28 09:35:25;;;;;;;9.57;1.80;;;17.20;99.90;;;;;;4878735;29;20064;-83
2021/09/28 09:38:13;;;;;;;10.77;2.10;;;17.30;99.90;;;;;;4895683;29;20474;-83
2021/09/28 09:40:48;;;;;;;10.60;1.95;;;17.40;99.90;;;;;;4865856;29;20044;-84
2021/09/28 09:43:18;;;;;;;8.70;1.50;;;17.40;99.90;;;;;;4894879;29;20044;-83
2021/09/28 09:45:44;;;;;;;9.18;1.42;;;17.50;99.90;;;;;;4895578;29;20513;-83
2021/09/28 09:48:29;;;;;;;9.40;1.60;;;17.50;99.90;;;;;;4877466;29;20100;-84
2021/09/28 09:51:03;;;;;;;9.32;1.40;;;17.50;99.90;;;;;;4878397;29;20049;-84
2021/09/28 09:53:30;;;;;;;6.38;1.40;;;17.60;99.90;;;;;;4894942;29;20124;-83
2021/09/28 09:55:58;;;;;;;9.27;1.50;;;17.60;99.90;;;;;;4878553;29;20041;-82
2021/09/28 09:58:25;;;;;;;11.88;1.70;;;17.60;99.90;;;;;;4894885;29;20051;-83
2021/09/28 10:00:54;;;;;;;9.73;1.40;;;17.60;99.90;;;;;;4894846;29;20052;-84
2021/09/28 10:03:21;;;;;;;8.75;1.27;;;17.60;99.90;;;;;;4891807;29;20060;-84
2021/09/28 10:05:49;;;;;;;7.88;1.27;;;17.60;99.90;;;;;;4871739;29;20051;-85
2021/09/28 10:08:16;;;;;;;10.77;1.77;;;17.70;99.90;;;;;;4877029;29;20092;-83
2021/09/28 10:10:43;;;;;;;8.32;1.70;;;17.70;99.90;;;;;;4894383;29;20413;-83
2021/09/28 10:13:45;;;;;;;8.18;1.58;;;17.80;99.90;;;;;;4878621;29;20116;-83
2021/09/28 10:16:38;;;;;;;5.18;1.33;;;17.80;99.90;;;;;;4894305;29;20183;-84
2021/09/28 10:19:28;;;;;;;5.63;1.30;;;17.80;99.90;;;;;;4895073;29;20097;-82
2021/09/28 10:21:56;;;;;;;9.02;1.70;;;17.80;99.90;;;;;;4876237;29;20510;-84
2021/09/28 10:24:34;;;;;;;5.82;1.10;;;17.90;99.90;;;;;;4894649;29;20097;-84
2021/09/28 10:27:01;;;;;;;9.65;1.50;;;17.90;99.90;;;;;;4895107;29;20056;-83
2021/09/28 10:29:37;;;;;;;5.75;1.10;;;17.90;99.90;;;;;;4895148;29;20052;-83
2021/09/28 10:32:24;;;;;;;5.13;0.98;;;17.90;99.90;;;;;;4894133;29;20524;-82
2021/09/28 10:35:09;;;;;;;6.30;1.10;;;17.90;99.90;;;;;;4894528;29;20509;-84
2021/09/28 10:37:49;;;;;;;5.07;0.95;;;17.90;99.90;;;;;;4893992;29;20049;-84
2021/09/28 10:40:22;;;;;;;6.40;1.00;;;17.90;99.90;;;;;;4894061;29;20049;-84
2021/09/28 10:42:53;;;;;;;8.77;1.25;;;17.90;99.90;;;;;;4878529;29;20573;-84
2021/09/28 10:45:29;;;;;;;4.57;1.10;;;17.90;99.90;;;;;;4894028;29;20052;-84
2021/09/28 10:48:00;;;;;;;4.55;1.00;;;18.00;99.90;;;;;;4894914;29;20666;-84
2021/09/28 10:50:31;;;;;;;8.00;1.40;;;18.10;99.90;;;;;;4893711;29;20514;-84
2021/09/28 10:53:01;;;;;;;8.50;1.27;;;18.10;99.90;;;;;;4894172;29;20064;-83
2021/09/28 10:56:12;;;;;;;7.43;1.20;;;18.10;99.90;;;;;;4894188;29;20105;-83
2021/09/28 10:59:02;;;;;;;9.07;1.25;;;18.20;99.90;;;;;;4881414;29;20049;-85
2021/09/28 11:01:32;;;;;;;6.88;1.30;;;18.30;99.90;;;;;;4880027;29;20048;-84
2021/09/28 11:04:03;;;;;;;9.18;1.50;;;18.30;99.90;;;;;;4877872;29;20474;-82
2021/09/28 11:06:42;;;;;;;10.48;1.52;;;18.30;99.90;;;;;;4894385;29;20045;-83
2021/09/28 11:09:09;;;;;;;;;;;18.30;99.90;;;;;;4894382;29;20490;-83
2021/09/28 11:11:37;;;;;;;8.45;1.40;;;18.30;99.90;;;;;;4894382;29;19975;-83
2021/09/28 11:14:06;;;;;;;9.25;1.70;;;18.30;99.90;;;;;;4894237;29;20045;-82
2021/09/28 11:16:53;;;;;;;12.00;1.40;;;18.40;99.90;;;;;;4894608;29;20525;-84
2021/09/28 11:19:21;;;;;;;7.88;1.50;;;18.40;99.90;;;;;;4879023;29;20053;-83
2021/09/28 11:21:48;;;;;;;7.65;1.27;;;18.40;99.90;;;;;;4898236;29;20104;-84
2021/09/28 11:24:21;;;;;;;6.80;1.30;;;18.40;99.90;;;;;;4896914;29;20470;-83
2021/09/28 11:26:50;;;;;;;7.90;1.40;;;18.40;99.90;;;;;;4897971;29;20120;-82
2021/09/28 11:29:22;;;;;;;9.40;0.77;;;18.50;99.90;;;;;;4897844;29;20100;-83
2021/09/28 11:31:49;;;;;;;5.78;0.77;;;18.50;99.90;;;;;;4897965;29;20521;-83
2021/09/28 11:34:32;;;;;;;6.93;1.10;;;18.50;99.90;;;;;;4896713;29;20049;-83
2021/09/28 11:37:17;;;;;;;3.35;0.75;;;18.50;99.90;;;;;;4897432;29;20164;-83
2021/09/28 11:39:45;;;;;;;7.95;0.93;;;18.50;99.90;;;;;;4898326;29;20045;-83
2021/09/28 11:42:13;;;;;;;3.78;0.65;;;18.40;99.90;;;;;;4880352;29;20052;-83
2021/09/28 11:44:45;;;;;;;4.30;0.75;;;18.40;99.90;;;;;;4897688;29;20520;-84
2021/09/28 11:47:16;;;;;;;7.18;1.17;;;18.50;99.90;;;;;;4880139;29;20060;-83
2021/09/28 11:49:48;;;;;;;4.90;1.08;;;18.50;99.90;;;;;;4897424;29;20056;-84
2021/09/28 11:52:15;;;;;;;8.38;1.25;;;18.60;99.90;;;;;;4880510;29;20525;-84
2021/09/28 11:54:45;;;;;;;7.20;1.30;;;18.60;99.90;;;;;;4881593;29;20450;-83
2021/09/28 11:57:13;;;;;;;8.00;1.40;;;18.60;99.90;;;;;;4880504;29;20057;-82
2021/09/28 11:59:41;;;;;;;7.40;1.08;;;18.70;99.90;;;;;;4895947;29;20071;-83
2021/09/28 12:02:08;;;;;;;6.57;1.30;;;18.70;99.90;;;;;;4896370;29;20096;-83
2021/09/28 12:10:37;;;;;;;5.70;1.75;;;18.70;99.90;;;;;;4896964;29;20112;-83
2021/09/28 12:13:24;;;;;;;5.38;1.13;;;18.70;99.90;;;;;;4867181;29;20049;-83
2021/09/28 12:16:18;;;;;;;7.47;1.30;;;18.80;99.90;;;;;;4877305;29;20476;-83
2021/09/28 12:18:45;;;;;;;9.68;1.63;;;18.80;99.90;;;;;;4895457;29;20100;-82
2021/09/28 12:21:23;;;;;;;4.30;1.23;;;18.80;99.90;;;;;;4895974;29;20108;-82
2021/09/28 12:24:12;;;;;;;8.68;1.67;;;18.70;99.90;;;;;;4896977;29;20044;-82
2021/09/28 12:26:40;;;;;;;5.28;1.27;;;18.60;99.90;;;;;;4896517;29;20052;-82
2021/09/28 12:29:19;;;;;;;7.65;1.27;;;18.40;99.90;;;;;;4896040;29;20052;-82
2021/09/28 12:31:47;;;;;;;7.63;1.20;;;18.30;99.90;;;;;;4879174;29;20514;-83
2021/09/28 12:34:15;;;;;;;6.67;1.67;;;18.20;99.90;;;;;;4879159;29;20072;-83
2021/09/28 12:36:42;;;;;;;5.60;1.15;;;18.00;99.90;;;;;;4897262;29;20056;-83
2021/09/28 12:39:14;;;;;;;8.77;1.30;;;18.00;99.90;;;;;;4896397;29;20525;-84
2021/09/28 12:42:08;;;;;;;7.07;1.13;;;17.90;99.90;;;;;;4897082;29;20048;-84
2021/09/28 12:44:37;;;;;;;7.75;1.13;;;17.80;99.90;;;;;;4896059;29;20041;-85
2021/09/28 12:47:29;;;;;;;5.30;1.15;;;17.70;99.90;;;;;;4895981;29;20706;-86
2021/09/28 12:49:57;;;;;;;6.90;0.90;;;17.50;99.90;;;;;;4896871;29;20045;-85
2021/09/28 12:52:24;;;;;;;7.93;1.25;;;17.40;99.90;;;;;;4896412;29;20052;-85
2021/09/28 12:54:51;;;;;;;5.00;1.05;;;17.40;99.90;;;;;;4896966;29;20104;-86
2021/09/28 12:57:18;;;;;;;7.70;1.20;;;17.30;99.90;;;;;;4895517;29;20104;-85
2021/09/28 12:59:45;;;;;;;7.25;1.40;;;17.30;99.90;;;;;;4879649;29;20153;-85
2021/09/28 13:02:12;;;;;;;5.60;1.15;;;17.20;99.90;;;;;;4895417;29;20072;-85
2021/09/28 13:04:39;;;;;;;8.00;1.33;;;17.10;99.90;;;;;;4880433;29;20127;-85
2021/09/28 13:07:08;;;;;;;9.32;1.55;;;17.10;99.90;;;;;;4879850;29;20532;-85
2021/09/28 13:09:35;;;;;;;8.35;1.45;;;17.00;99.90;;;;;;4895385;29;20048;-85
2021/09/28 13:12:03;;;;;;;8.10;1.63;;;17.00;99.90;;;;;;4879282;29;20056;-84
2021/09/28 13:14:30;;;;;;;7.78;1.50;;;17.00;99.90;;;;;;4895903;29;20051;-85
2021/09/28 13:16:58;;;;;;;11.85;2.25;;;17.00;99.90;;;;;;4896596;29;20119;-85
2021/09/28 13:19:25;;;;;;;9.77;1.60;;;17.10;99.90;;;;;;4895773;29;20398;-86
2021/09/28 13:21:53;;;;;;;12.48;2.22;;;17.20;99.90;;;;;;4896883;29;20056;-87
2021/09/28 13:24:20;;;;;;;8.85;1.42;;;17.30;99.90;;;;;;4895695;29;20052;-85
2021/09/28 13:26:47;;;;;;;11.88;1.70;;;17.40;99.90;;;;;;4895788;29;20466;-85
2021/09/28 13:29:14;;;;;;;11.48;1.90;;;17.60;99.90;;;;;;4895692;29;20056;-85
2021/09/28 13:31:41;;;;;;;9.93;1.88;;;17.70;99.90;;;;;;4895521;29;20537;-84
2021/09/28 13:34:08;;;;;;;11.77;1.67;;;17.90;99.90;;;;;;4895224;29;20104;-85
2021/09/28 13:36:36;;;;;;;11.93;1.88;;;18.10;99.90;;;;;;4895849;29;20052;-84
2021/09/28 13:39:05;;;;;;;9.07;2.13;;;18.20;99.90;;;;;;4895838;29;20107;-81
2021/09/28 13:41:32;;;;;;;10.57;1.65;;;18.30;99.90;;;;;;4895312;29;20045;-82
2021/09/28 13:44:00;;;;;;;9.27;1.60;;;18.40;99.90;;;;;;4894363;29;20049;-83
2021/09/28 13:46:27;;;;;;;10.75;1.50;;;18.60;99.90;;;;;;4895074;29;20100;-83
2021/09/28 13:48:54;;;;;;;14.60;1.70;;;18.70;99.90;;;;;;4895388;29;20135;-82
2021/09/28 13:51:21;;;;;;;11.85;1.80;;;18.70;99.90;;;;;;4895283;29;20052;-82
2021/09/28 13:53:48;;;;;;;6.72;1.85;;;18.80;99.90;;;;;;4895674;29;20511;-82
2021/09/28 13:56:15;;;;;;;11.18;1.70;;;18.80;99.90;;;;;;4894530;29;20525;-83
2021/09/28 13:58:56;;;;;;;7.57;1.55;;;18.80;99.90;;;;;;4895224;29;20071;-83
2021/09/28 14:01:23;;;;;;;8.43;1.90;;;18.70;99.90;;;;;;4877925;29;20049;-83
2021/09/28 14:03:50;;;;;;;10.07;2.28;;;18.70;99.90;;;;;;4879380;29;20151;-86
2021/09/28 14:06:18;;;;;;;10.27;1.60;;;18.70;99.90;;;;;;4894308;29;20121;-85
2021/09/28 14:08:46;;;;;;;12.80;1.70;;;18.70;99.90;;;;;;4895043;29;20569;-85
2021/09/28 14:11:13;;;;;;;9.48;2.00;;;18.70;99.90;;;;;;4894611;29;20057;-85
2021/09/28 14:13:41;;;;;;;11.20;2.17;;;18.70;99.90;;;;;;4878192;29;20052;-83
2021/09/28 14:16:08;;;;;;;10.15;2.00;;;18.70;99.90;;;;;;4894359;29;20104;-81
2021/09/28 14:18:35;;;;;;;8.25;1.80;;;18.70;99.90;;;;;;4878819;29;20119;-83
2021/09/28 14:21:03;;;;;;;11.07;1.98;;;18.80;99.90;;;;;;4895192;29;20057;-85
2021/09/28 14:23:31;;;;;;;13.43;2.17;;;18.80;99.90;;;;;;4894387;29;20413;-86
2021/09/28 14:25:57;;;;;;;12.20;2.17;;;18.80;99.90;;;;;;4878234;29;20077;-84
2021/09/28 14:28:24;;;;;;;16.10;2.28;;;18.80;99.90;;;;;;4894160;29;20092;-84
2021/09/28 14:30:51;;;;;;;9.20;1.70;;;18.80;99.90;;;;;;4894818;29;20471;-85
2021/09/28 14:33:24;;;;;;;12.52;1.77;;;18.90;99.90;;;;;;4878131;29;20573;-86
2021/09/28 14:35:52;;;;;;;11.50;1.85;;;18.90;99.90;;;;;;4894794;29;20116;-82
2021/09/28 14:38:18;;;;;;;7.43;1.88;;;18.90;99.90;;;;;;4893539;29;20053;-83
2021/09/28 14:40:45;;;;;;;10.18;1.73;;;18.90;99.90;;;;;;4878604;29;20040;-82
2021/09/28 14:43:12;;;;;;;10.95;2.05;;;18.90;99.90;;;;;;4894115;29;20064;-82
2021/09/28 14:45:39;;;;;;;8.60;1.52;;;18.80;99.90;;;;;;4894384;29;20510;-82
2021/09/28 14:48:10;;;;;;;12.75;1.88;;;18.80;99.90;;;;;;4893788;29;20076;-82
2021/09/28 14:50:38;;;;;;;12.25;2.20;;;18.70;99.90;;;;;;4894296;29;20086;-85
2021/09/28 14:53:06;;;;;;;15.52;2.33;;;18.70;99.90;;;;;;4876887;29;20048;-84
2021/09/28 14:55:34;;;;;;;11.85;1.98;;;18.60;99.90;;;;;;4895533;29;20048;-85
2021/09/28 14:58:01;;;;;;;8.97;1.90;;;18.50;99.90;;;;;;4881713;29;20135;-85
2021/09/28 15:00:28;;;;;;;10.90;2.00;;;18.40;99.90;;;;;;4897607;29;20772;-84
2021/09/28 15:02:58;;;;;;;12.65;2.15;;;18.40;99.90;;;;;;4898120;29;20052;-85
2021/09/28 15:05:26;;;;;;;13.23;2.70;;;18.40;99.90;;;;;;4881294;29;20059;-84
2021/09/28 15:07:53;;;;;;;14.50;2.08;;;18.40;99.90;;;;;;4898314;29;20049;-83
2021/09/28 15:10:20;;;;;;;13.82;2.30;;;18.40;99.90;;;;;;4897201;29;20060;-82
2021/09/28 15:12:48;;;;;;;16.45;2.45;;;18.40;99.90;;;;;;4898197;29;20059;-83
2021/09/28 15:15:15;;;;;;;11.15;1.88;;;18.40;99.90;;;;;;4896137;29;20427;-85
2021/09/28 15:17:43;;;;;;;18.23;2.72;;;18.40;99.90;;;;;;4897207;29;20116;-84
2021/09/28 15:20:11;;;;;;;14.10;2.50;;;18.40;99.90;;;;;;4879645;29;20135;-85
2021/09/28 15:22:38;;;;;;;13.97;2.40;;;18.40;99.90;;;;;;4896937;29;20118;-83
2021/09/28 15:25:06;;;;;;;17.95;2.90;;;18.30;99.90;;;;;;4893975;29;20085;-83
2021/09/28 15:27:35;;;;;;;12.43;2.28;;;18.30;99.90;;;;;;4894659;29;20057;-84
2021/09/28 15:30:04;;;;;;;14.48;2.47;;;18.20;99.90;;;;;;4879915;29;20053;-83
2021/09/28 15:32:33;;;;;;;12.52;2.33;;;18.10;99.90;;;;;;4879973;29;20076;-84
2021/09/28 15:35:00;;;;;;;17.85;2.83;;;18.10;99.90;;;;;;4896502;29;20108;-83
2021/09/28 15:37:27;;;;;;;14.48;2.50;;;18.00;99.90;;;;;;4879751;29;20096;-84
2021/09/28 15:39:54;;;;;;;11.02;2.13;;;17.90;99.90;;;;;;4897489;29;20513;-84
2021/09/28 15:42:21;;;;;;;11.70;2.35;;;17.90;99.90;;;;;;4896122;29;20611;-84
2021/09/28 15:44:48;;;;;;;12.68;2.28;;;17.80;99.90;;;;;;4896960;29;20112;-85
2021/09/28 15:47:15;;;;;;;17.98;2.67;;;17.70;99.90;;;;;;4896600;29;20056;-83
2021/09/28 15:49:42;;;;;;;16.60;2.97;;;17.60;99.90;;;;;;4894311;29;20414;-85
2021/09/28 15:52:09;;;;;;;17.75;2.65;;;17.60;99.90;;;;;;4878364;29;20580;-83
2021/09/28 15:54:36;;;;;;;16.65;2.63;;;17.50;99.90;;;;;;4894999;29;20104;-83
2021/09/28 15:57:03;;;;;;;13.15;2.45;;;17.40;99.90;;;;;;4890901;29;20053;-84
2021/09/28 15:59:31;;;;;;;21.40;2.92;;;17.40;99.90;;;;;;4873657;29;20041;-83
2021/09/28 16:01:58;;;;;;;20.38;2.70;;;17.30;99.90;;;;;;4889196;29;20084;-83
2021/09/28 16:04:25;;;;;;;14.80;2.33;;;17.20;99.90;;;;;;4889519;29;20059;-81
2021/09/28 16:06:52;;;;;;;15.20;2.83;;;17.10;99.90;;;;;;4885901;29;20048;-84
2021/09/28 16:09:19;;;;;;;18.73;2.65;;;17.00;99.90;;;;;;4884544;29;20052;-82
2021/09/28 16:11:46;;;;;;;18.25;2.75;;;16.90;99.90;;;;;;4883911;29;20045;-82
2021/09/28 16:14:15;;;;;;;17.10;2.95;;;16.80;99.90;;;;;;4867511;29;20124;-85
2021/09/28 16:16:42;;;;;;;14.43;2.70;;;16.80;99.90;;;;;;4884085;29;20045;-82
2021/09/28 16:19:12;;;;;;;16.77;3.45;;;16.70;99.90;;;;;;4879797;29;21150;-83
2021/09/28 16:21:39;;;;;;;16.45;3.38;;;16.60;99.90;;;;;;4866168;29;20526;-84
2021/09/28 16:24:07;;;;;;;15.82;3.10;;;16.60;99.90;;;;;;4886030;29;20108;-84
2021/09/28 16:26:34;;;;;;;22.38;3.20;;;16.50;99.90;;;;;;4886872;29;20083;-84
2021/09/28 16:29:01;;;;;;;20.27;3.67;;;16.40;99.90;;;;;;4884786;29;20402;-85
2021/09/28 16:31:29;;;;;;;18.65;3.00;;;16.30;99.90;;;;;;4873916;29;20195;-86
2021/09/28 16:33:56;;;;;;;18.23;3.20;;;16.30;99.90;;;;;;4881308;29;20069;-84
2021/09/28 16:36:23;;;;;;;20.77;3.40;;;16.20;99.90;;;;;;4875067;29;20080;-83
2021/09/28 16:38:52;;;;;;;17.95;3.30;;;16.20;99.90;;;;;;4891960;29;20064;-84
2021/09/28 16:41:19;;;;;;;20.77;3.70;;;16.10;99.90;;;;;;4876542;29;20518;-84
2021/09/28 16:43:48;;;;;;;21.35;3.70;;;16.10;99.90;;;;;;4886991;29;20306;-87
2021/09/28 16:46:19;;;;;;;;;;;16.00;99.90;;;;;;4889542;29;20128;-86
2021/09/28 16:48:51;;;;;;;22.17;3.65;;;16.00;99.90;;;;;;4885281;29;19934;-88
2021/09/28 16:51:21;;;;;;;18.35;3.42;;;15.90;99.90;;;;;;4886575;29;20044;-85
2021/09/28 16:53:51;;;;;;;18.75;3.53;;;15.90;99.90;;;;;;4868852;29;20076;-88
2021/09/28 16:56:19;;;;;;;19.90;3.67;;;15.90;99.90;;;;;;4891989;29;20045;-85
2021/09/28 16:58:46;;;;;;;19.58;3.20;;;15.90;99.90;;;;;;4884930;29;20133;-87
2021/09/28 17:01:13;;;;;;;18.17;3.00;;;15.90;99.90;;;;;;4887476;29;20184;-85
2021/09/28 17:03:40;;;;;;;21.92;3.65;;;15.90;99.90;;;;;;4885900;29;20053;-86
2021/09/28 17:06:07;;;;;;;20.13;3.63;;;16.00;99.90;;;;;;4888102;29;20052;-87
2021/09/28 17:08:34;;;;;;;19.45;2.90;;;16.00;99.90;;;;;;4887188;29;20053;-86
2021/09/28 17:11:01;;;;;;;13.90;2.15;;;15.90;99.90;;;;;;4883872;29;20056;-85
2021/09/28 17:13:28;;;;;;;9.75;2.00;;;15.90;99.90;;;;;;4884819;29;20455;-84
2021/09/28 17:15:56;;;;;;;14.63;2.08;;;15.90;99.90;;;;;;4890111;29;20060;-87
2021/09/28 17:18:23;;;;;;;13.02;2.00;;;15.90;99.90;;;;;;4871341;29;20158;-87
2021/09/28 17:20:49;;;;;;;14.40;2.30;;;15.80;99.90;;;;;;4872525;29;20477;-84
2021/09/28 17:23:16;;;;;;;15.57;2.13;;;15.80;99.90;;;;;;4884922;29;20052;-84
2021/09/28 17:25:43;;;;;;;13.63;2.13;;;15.80;99.90;;;;;;4871905;29;20108;-86
2021/09/28 17:28:10;;;;;;;16.23;2.20;;;15.70;99.90;;;;;;4890740;29;20048;-84
2021/09/28 17:30:38;;;;;;;16.17;2.78;;;15.70;99.90;;;;;;4887427;29;20432;-83
2021/09/28 17:33:05;;;;;;;14.75;2.95;;;15.60;99.90;;;;;;4887267;29;20057;-84
2021/09/28 17:35:33;;;;;;;18.13;2.90;;;15.60;99.90;;;;;;4864969;29;20121;-84
2021/09/28 17:38:01;;;;;;;18.67;2.03;;;15.60;99.90;;;;;;4882121;29;20049;-84
2021/09/28 17:40:29;;;;;;;17.40;2.65;;;15.60;99.90;;;;;;4871189;29;20117;-86
2021/09/28 17:42:58;;;;;;;18.63;2.58;;;15.60;99.90;;;;;;4870269;29;20105;-84
2021/09/28 17:45:28;;;;;;;22.75;4.30;;;15.50;99.90;;;;;;4882622;29;20076;-82
2021/09/28 17:47:56;;;;;;;19.17;3.05;;;15.50;99.90;;;;;;4883085;29;20049;-82
2021/09/28 17:50:27;;;;;;;22.23;3.13;;;15.50;99.90;;;;;;4886069;29;20486;-83
2021/09/28 17:52:57;;;;;;;24.52;3.28;;;15.40;99.90;;;;;;4879224;29;20470;-84
2021/09/28 17:58:07;;;;;;;28.52;3.55;;;15.40;99.90;;;;;;4880324;29;20059;-83
2021/09/28 18:00:35;;;;;;;32.70;3.72;;;15.40;99.90;;;;;;4879923;29;20064;-83
2021/09/28 18:03:05;;;;;;;35.13;4.05;;;15.40;99.90;;;;;;4880629;29;20063;-83
2021/09/28 18:05:33;;;;;;;31.40;4.05;;;15.40;99.90;;;;;;4883409;29;20053;-82
2021/09/28 18:08:00;;;;;;;30.98;4.85;;;15.40;99.90;;;;;;4867014;29;20135;-83
2021/09/28 18:10:28;;;;;;;30.85;3.60;;;15.40;99.90;;;;;;4879257;29;20135;-82
2021/09/28 18:12:56;;;;;;;33.97;3.97;;;15.40;99.90;;;;;;4882465;29;20048;-81
2021/09/28 18:15:24;;;;;;;24.00;3.97;;;15.40;99.90;;;;;;4878624;29;20063;-82
2021/09/28 18:17:51;;;;;;;24.90;3.50;;;15.40;99.90;;;;;;4882912;29;20069;-82
2021/09/28 18:20:22;;;;;;;38.80;3.97;;;15.40;99.90;;;;;;4876710;29;20437;-82
2021/09/28 18:22:50;;;;;;;34.13;4.72;;;15.40;99.90;;;;;;4879982;29;20104;-84
2021/09/28 18:25:20;;;;;;;31.80;3.83;;;15.40;99.90;;;;;;4887562;29;20054;-85
2021/09/28 18:27:53;;;;;;;26.98;3.80;;;15.40;99.90;;;;;;4890387;29;20293;-84
2021/09/28 18:30:21;;;;;;;44.63;4.60;;;15.40;99.90;;;;;;4873219;29;20053;-84
2021/09/28 18:32:49;;;;;;;43.45;4.95;;;15.30;99.90;;;;;;4888188;29;20049;-83
2021/09/28 18:35:16;;;;;;;45.88;5.07;;;15.30;99.90;;;;;;4889554;29;20052;-84
2021/09/28 18:37:44;;;;;;;46.72;4.18;;;15.30;99.90;;;;;;4889543;29;20053;-84
2021/09/28 18:45:12;;;;;;;45.30;5.53;;;15.30;99.90;;;;;;4881162;29;20109;-82
2021/09/28 18:47:40;;;;;;;46.90;5.82;;;15.30;99.90;;;;;;4875354;29;20057;-82
2021/09/28 18:50:10;;;;;;;47.87;5.57;;;15.40;99.90;;;;;;4876579;29;20101;-82
2021/09/28 18:52:40;;;;;;;42.35;5.50;;;15.40;99.90;;;;;;4878903;29;20518;-83
2021/09/28 18:55:11;;;;;;;65.78;6.72;;;15.40;99.90;;;;;;4877168;29;20902;-82
2021/09/28 18:57:54;;;;;;;38.75;5.28;;;15.40;99.90;;;;;;4875750;29;20049;-84
2021/09/28 19:00:25;;;;;;;34.33;4.22;;;15.40;99.90;;;;;;4880449;29;20419;-83
2021/09/28 19:02:55;;;;;;;36.25;5.30;;;15.40;99.90;;;;;;4878014;29;20120;-82
2021/09/28 19:08:10;;;;;;;34.78;3.97;;;15.40;99.90;;;;;;4875315;29;20429;-83
2021/09/28 19:10:42;;;;;;;34.88;4.13;;;15.30;99.90;;;;;;4877345;29;20048;-81